createdAt,value
2023-05-02T00:00:54.722Z,11.77
2023-05-02T00:03:21.406Z,14.77
2023-05-02T00:05:48.078Z,14.02
2023-05-02T00:08:14.735Z,15.18
2023-05-02T00:10:41.335Z,13.48
2023-05-02T00:13:07.964Z,14.52
2023-05-02T00:15:34.551Z,16.55
2023-05-02T00:18:01.400Z,15.65
2023-05-02T00:20:27.983Z,16.80
2023-05-02T00:22:56.908Z,15.50
2023-05-02T00:25:23.616Z,17.20
2023-05-02T00:27:51.191Z,18.90
2023-05-02T00:30:18.577Z,18.73
2023-05-02T00:32:45.560Z,20.33
2023-05-02T00:35:12.414Z,19.30
2023-05-02T00:37:39.207Z,23.75
2023-05-02T00:40:07.961Z,20.20
2023-05-02T00:42:36.205Z,20.08
2023-05-02T00:45:06.399Z,22.05
2023-05-02T00:47:33.417Z,25.10
2023-05-02T00:50:01.400Z,22.50
2023-05-02T00:52:28.981Z,23.38
2023-05-02T00:54:56.042Z,23.25
2023-05-02T00:57:23.129Z,21.27
2023-05-02T00:59:51.039Z,22.70
2023-05-02T01:02:32.440Z,20.77
2023-05-02T01:05:17.368Z,28.48
2023-05-02T01:07:43.950Z,30.38
2023-05-02T01:10:21.193Z,26.67
2023-05-02T01:12:56.950Z,30.13
2023-05-02T01:15:23.896Z,36.83
2023-05-02T01:17:52.755Z,40.22
2023-05-02T01:20:23.596Z,38.70
2023-05-02T01:22:52.255Z,43.05
2023-05-02T01:25:24.928Z,45.63
2023-05-02T01:27:57.985Z,43.88
2023-05-02T01:30:28.090Z,46.20
2023-05-02T01:32:57.585Z,46.03
2023-05-02T01:37:53.125Z,45.45
2023-05-02T01:40:22.534Z,51.65
2023-05-02T01:42:51.791Z,53.63
2023-05-02T01:45:21.203Z,51.28
2023-05-02T01:47:48.843Z,52.55
2023-05-02T01:50:20.302Z,49.65
2023-05-02T01:52:51.281Z,53.22
2023-05-02T01:55:18.382Z,54.95
2023-05-02T01:57:47.230Z,55.05
2023-05-02T02:00:17.570Z,56.58
2023-05-02T02:02:46.200Z,60.00
2023-05-02T02:05:14.778Z,55.75
2023-05-02T02:07:42.820Z,56.55
2023-05-02T02:10:09.616Z,55.90
2023-05-02T02:13:00.974Z,58.45
2023-05-02T02:15:29.116Z,61.72
2023-05-02T02:18:05.204Z,62.10
2023-05-02T02:20:32.681Z,58.30
2023-05-02T02:23:03.210Z,59.60
2023-05-02T02:25:30.314Z,59.67
2023-05-02T02:27:57.193Z,57.03
2023-05-02T02:30:23.835Z,58.63
2023-05-02T02:32:52.591Z,57.22
2023-05-02T02:35:19.700Z,56.55
2023-05-02T02:38:11.337Z,58.15
2023-05-02T02:40:51.294Z,57.10
2023-05-02T02:43:33.540Z,57.22
2023-05-02T02:46:32.638Z,51.83
2023-05-02T02:49:18.027Z,50.20
2023-05-02T02:51:49.164Z,54.83
2023-05-02T02:54:26.876Z,54.10
2023-05-02T02:57:04.519Z,49.38
2023-05-02T02:59:37.958Z,46.88
2023-05-02T03:02:09.897Z,49.83
2023-05-02T03:04:40.895Z,48.90
2023-05-02T03:07:08.102Z,46.50
2023-05-02T03:09:45.329Z,48.05
2023-05-02T03:12:16.424Z,44.03
2023-05-02T03:14:44.268Z,42.80
2023-05-02T03:17:11.575Z,41.13
2023-05-02T03:19:38.306Z,41.25
2023-05-02T03:22:05.848Z,41.65
2023-05-02T03:24:34.590Z,41.85
2023-05-02T03:27:02.183Z,43.60
2023-05-02T03:29:35.039Z,41.83
2023-05-02T03:32:01.702Z,42.33
2023-05-02T03:34:28.603Z,46.17
2023-05-02T03:36:55.861Z,43.90
2023-05-02T03:39:22.693Z,44.65
2023-05-02T03:41:49.297Z,42.63
2023-05-02T03:44:19.173Z,47.30
2023-05-02T03:46:48.236Z,41.75
2023-05-02T03:49:14.982Z,49.33
2023-05-02T03:54:11.061Z,49.83
2023-05-02T03:56:42.701Z,47.67
2023-05-02T03:59:24.408Z,51.20
2023-05-02T04:01:51.655Z,44.22
2023-05-02T04:04:22.365Z,52.47
2023-05-02T04:06:51.979Z,52.88
2023-05-02T04:09:23.534Z,55.13
2023-05-02T04:11:54.212Z,49.65
2023-05-02T04:14:21.384Z,55.63
2023-05-02T04:16:50.639Z,49.38
2023-05-02T04:19:23.213Z,50.85
2023-05-02T04:21:49.732Z,51.80
2023-05-02T04:24:17.045Z,55.22
2023-05-02T04:26:44.748Z,45.08
2023-05-02T04:29:13.552Z,49.17
2023-05-02T04:31:41.315Z,52.28
2023-05-02T04:34:09.234Z,49.00
2023-05-02T04:36:41.937Z,47.67
2023-05-02T04:39:11.574Z,47.22
2023-05-02T04:41:43.104Z,45.03
2023-05-02T04:44:09.717Z,46.13
2023-05-02T04:46:37.765Z,46.15
2023-05-02T04:49:04.483Z,43.10
2023-05-02T04:51:31.683Z,45.10
2023-05-02T04:53:58.643Z,43.25
2023-05-02T04:56:26.331Z,38.78
2023-05-02T04:58:52.923Z,44.95
2023-05-02T05:01:19.683Z,45.13
2023-05-02T05:03:47.081Z,40.80
2023-05-02T05:06:16.025Z,41.42
2023-05-02T05:08:45.554Z,41.42
2023-05-02T05:11:13.402Z,41.10
2023-05-02T05:13:41.973Z,31.08
2023-05-02T05:16:10.520Z,20.95
2023-05-02T05:18:40.958Z,9.95
2023-05-02T05:21:10.598Z,9.73
2023-05-02T05:23:38.315Z,10.20
2023-05-02T05:26:15.251Z,11.17
2023-05-02T05:28:44.814Z,9.57
2023-05-02T05:31:16.910Z,7.72
2023-05-02T05:33:46.956Z,7.70
2023-05-02T05:36:14.966Z,8.32
2023-05-02T05:38:41.824Z,8.25
2023-05-02T05:41:11.015Z,6.40
2023-05-02T05:43:41.318Z,6.72
2023-05-02T05:46:08.393Z,7.40
2023-05-02T05:48:36.642Z,7.18
2023-05-02T05:51:06.827Z,6.95
2023-05-02T05:53:34.129Z,8.57
2023-05-02T05:56:13.293Z,5.43
2023-05-02T05:58:49.041Z,6.13
2023-05-02T06:01:16.591Z,5.60
2023-05-02T06:03:43.286Z,10.15
2023-05-02T06:06:09.961Z,6.85
2023-05-02T06:08:36.591Z,5.32
2023-05-02T06:11:08.920Z,4.57
2023-05-02T06:13:35.496Z,6.25
2023-05-02T06:16:02.867Z,6.57
2023-05-02T06:18:29.952Z,9.18
2023-05-02T06:20:56.620Z,4.55
2023-05-02T06:23:23.203Z,5.45
2023-05-02T06:25:50.340Z,8.77
2023-05-02T06:28:16.901Z,3.80
2023-05-02T06:30:43.459Z,3.35
2023-05-02T06:33:10.201Z,2.38
2023-05-02T06:35:36.805Z,1.95
2023-05-02T06:38:03.337Z,2.50
2023-05-02T06:40:29.918Z,4.03
2023-05-02T06:42:56.497Z,4.80
2023-05-02T06:45:23.061Z,2.35
2023-05-02T06:47:49.860Z,3.95
2023-05-02T06:50:16.436Z,4.25
2023-05-02T06:52:42.958Z,3.53
2023-05-02T06:55:09.760Z,3.33
2023-05-02T06:57:36.339Z,3.65
2023-05-02T07:00:04.297Z,4.60
2023-05-02T07:02:31.041Z,3.08
2023-05-02T07:04:57.590Z,6.32
2023-05-02T07:07:24.123Z,5.70
2023-05-02T07:09:50.682Z,4.85
2023-05-02T07:12:17.220Z,8.48
2023-05-02T07:14:46.757Z,9.60
2023-05-02T07:19:40.000Z,7.57
2023-05-02T07:22:07.140Z,10.05
2023-05-02T07:24:33.746Z,5.72
2023-05-02T07:27:00.753Z,7.93
2023-05-02T07:29:27.498Z,9.60
2023-05-02T07:31:54.137Z,7.60
2023-05-02T07:34:20.674Z,10.20
2023-05-02T07:36:47.145Z,10.60
2023-05-02T07:39:13.688Z,12.32
2023-05-02T07:41:40.243Z,17.20
2023-05-02T07:44:06.837Z,19.35
2023-05-02T07:46:33.493Z,17.02
2023-05-02T07:49:00.112Z,21.15
2023-05-02T07:51:26.863Z,13.63
2023-05-02T07:53:55.633Z,22.48
2023-05-02T07:56:22.162Z,21.63
2023-05-02T07:58:48.800Z,17.48
2023-05-02T08:01:15.412Z,17.58
2023-05-02T08:03:42.302Z,19.67
2023-05-02T08:06:09.845Z,23.30
2023-05-02T08:08:37.196Z,19.92
2023-05-02T08:11:04.576Z,21.70
2023-05-02T08:13:31.179Z,19.67
2023-05-02T08:15:58.469Z,22.17
2023-05-02T08:18:25.656Z,19.25
2023-05-02T08:20:52.981Z,25.20
2023-05-02T08:23:20.761Z,19.25
2023-05-02T08:25:47.268Z,27.92
2023-05-02T08:28:13.883Z,24.63
2023-05-02T08:30:40.592Z,21.65
2023-05-02T08:33:07.355Z,22.70
2023-05-02T08:35:33.879Z,22.20
2023-05-02T08:38:00.668Z,20.85
2023-05-02T08:40:38.221Z,16.92
2023-05-02T08:43:08.524Z,18.40
2023-05-02T08:45:39.200Z,21.05
2023-05-02T08:48:10.911Z,22.58
2023-05-02T08:50:38.984Z,28.15
2023-05-02T08:53:07.117Z,16.98
2023-05-02T08:55:39.920Z,21.02
2023-05-02T08:58:08.455Z,14.25
2023-05-02T09:00:40.765Z,17.17
2023-05-02T09:03:37.212Z,13.88
2023-05-02T09:06:10.815Z,18.83
2023-05-02T09:08:37.950Z,11.02
2023-05-02T09:11:09.394Z,18.20
2023-05-02T09:13:43.070Z,15.93
2023-05-02T09:16:15.255Z,11.65
2023-05-02T09:18:46.876Z,12.02
2023-05-02T09:21:21.159Z,15.68
2023-05-02T09:23:56.911Z,20.90
2023-05-02T09:26:35.181Z,14.70
2023-05-02T09:29:04.678Z,16.77
2023-05-02T09:34:16.443Z,9.75
2023-05-02T09:36:46.146Z,12.23
2023-05-02T09:39:15.054Z,14.23
2023-05-02T09:41:48.285Z,11.43
2023-05-02T09:44:18.392Z,13.63
2023-05-02T09:46:49.614Z,11.13
2023-05-02T09:49:19.950Z,15.85
2023-05-02T09:51:48.000Z,13.63
2023-05-02T09:54:38.452Z,10.45
2023-05-02T09:57:07.084Z,12.90
2023-05-02T09:59:33.911Z,14.43
2023-05-02T10:02:03.367Z,9.63
2023-05-02T10:06:58.731Z,9.77
2023-05-02T10:09:27.022Z,13.45
2023-05-02T10:11:55.360Z,9.50
2023-05-02T10:14:26.794Z,12.70
2023-05-02T10:17:26.739Z,18.63
2023-05-02T10:20:07.949Z,10.90
2023-05-02T10:22:35.284Z,9.15
2023-05-02T10:25:03.920Z,10.52
2023-05-02T10:27:32.174Z,18.17
2023-05-02T10:30:00.377Z,10.57
2023-05-02T10:32:30.118Z,7.05
2023-05-02T10:34:57.312Z,13.48
2023-05-02T10:37:28.942Z,13.52
2023-05-02T10:39:55.684Z,10.50
2023-05-02T10:42:23.674Z,15.02
2023-05-02T10:44:51.122Z,13.63
2023-05-02T10:47:23.004Z,13.27
2023-05-02T10:49:52.965Z,8.40
2023-05-02T10:52:34.050Z,12.82
2023-05-02T10:55:19.828Z,12.80
2023-05-02T10:58:01.403Z,7.65
2023-05-02T11:00:33.712Z,14.05
2023-05-02T11:03:02.271Z,10.35
2023-05-02T11:05:29.547Z,9.00
2023-05-02T11:08:14.902Z,7.57
2023-05-02T11:10:41.617Z,8.98
2023-05-02T11:13:08.339Z,9.48
2023-05-02T11:15:41.187Z,13.15
2023-05-02T11:18:12.780Z,9.43
2023-05-02T11:20:44.841Z,10.18
2023-05-02T11:23:18.158Z,9.38
2023-05-02T11:25:48.491Z,9.55
2023-05-02T11:28:36.839Z,12.32
2023-05-02T11:31:05.319Z,15.75
2023-05-02T11:33:32.215Z,10.15
2023-05-02T11:35:58.851Z,16.95
2023-05-02T11:38:27.294Z,12.25
2023-05-02T11:40:59.935Z,10.88
2023-05-02T11:43:30.816Z,14.00
2023-05-02T11:46:00.026Z,10.25
2023-05-02T11:48:42.060Z,12.50
2023-05-02T11:51:34.812Z,8.05
2023-05-02T11:54:09.936Z,7.80
2023-05-02T11:56:45.092Z,9.73
2023-05-02T11:59:28.829Z,8.07
2023-05-02T12:02:10.420Z,8.23
2023-05-02T12:05:00.053Z,11.02
2023-05-02T12:08:01.387Z,14.18
2023-05-02T12:10:44.481Z,10.30
2023-05-02T12:13:25.797Z,8.07
2023-05-02T12:16:04.064Z,9.32
2023-05-02T12:18:45.857Z,8.70
2023-05-02T12:21:23.561Z,10.38
2023-05-02T12:24:16.391Z,7.13
2023-05-02T12:26:51.264Z,11.70
2023-05-02T12:30:27.536Z,11.50
2023-05-02T12:32:48.620Z,7.88
2023-05-02T12:35:33.670Z,10.43
2023-05-02T12:38:29.312Z,9.40
2023-05-02T12:41:03.506Z,9.00
2023-05-02T12:43:46.185Z,9.07
2023-05-02T12:46:21.554Z,7.32
2023-05-02T12:49:15.017Z,8.55
2023-05-02T12:52:02.951Z,9.05
2023-05-02T12:54:33.237Z,7.57
2023-05-02T12:57:41.482Z,8.77
2023-05-02T13:00:27.080Z,11.88
2023-05-02T13:02:57.886Z,14.07
2023-05-02T13:05:30.484Z,9.55
2023-05-02T13:08:02.557Z,9.70
2023-05-02T13:10:37.394Z,10.23
2023-05-02T13:13:11.293Z,11.20
2023-05-02T13:15:57.807Z,7.68
2023-05-02T13:21:11.178Z,10.52
2023-05-02T13:47:42.392Z,15.32
2023-05-02T13:50:12.024Z,12.85
2023-05-02T13:52:38.747Z,12.07
2023-05-02T13:55:07.264Z,15.02
2023-05-02T13:57:38.432Z,11.27
2023-05-02T14:00:09.159Z,11.02
2023-05-02T14:02:36.846Z,12.48
2023-05-02T14:05:03.977Z,10.18
2023-05-02T14:07:30.619Z,12.27
2023-05-02T14:09:57.392Z,14.52
2023-05-02T14:12:24.090Z,14.93
2023-05-02T14:14:50.628Z,12.18
2023-05-02T14:17:17.392Z,13.98
2023-05-02T14:19:43.932Z,15.02
2023-05-02T14:22:10.474Z,17.08
2023-05-02T14:24:37.023Z,14.88
2023-05-02T14:27:04.629Z,14.48
2023-05-02T14:29:31.261Z,10.55
2023-05-02T14:31:57.857Z,16.00
2023-05-02T14:34:26.862Z,12.98
2023-05-02T14:36:56.896Z,13.27
2023-05-02T14:39:27.426Z,11.48
2023-05-02T14:41:54.194Z,11.50
2023-05-02T14:44:20.731Z,12.63
2023-05-02T14:46:52.187Z,13.93
2023-05-02T14:49:19.038Z,10.65
2023-05-02T14:51:48.839Z,13.27
2023-05-02T14:54:19.394Z,12.10
2023-05-02T14:56:46.083Z,12.63
2023-05-02T14:59:12.727Z,12.23
2023-05-02T15:01:39.385Z,8.27
2023-05-02T15:04:07.666Z,13.15
2023-05-02T15:06:35.991Z,12.77
2023-05-02T15:09:03.710Z,12.95
2023-05-02T15:11:30.676Z,13.23
2023-05-02T15:13:59.962Z,11.48
2023-05-02T15:16:29.491Z,12.57
2023-05-02T15:18:56.101Z,11.32
2023-05-02T15:21:22.996Z,9.35
2023-05-02T15:23:49.590Z,14.68
2023-05-02T15:26:16.201Z,10.95
2023-05-02T15:28:42.819Z,10.27
2023-05-02T15:31:09.429Z,12.07
2023-05-02T15:33:37.508Z,11.93
2023-05-02T15:36:04.359Z,10.55
2023-05-02T15:38:30.996Z,13.25
2023-05-02T15:40:58.814Z,9.90
2023-05-02T15:43:30.143Z,10.93
2023-05-02T15:45:58.654Z,9.98
2023-05-02T15:48:33.151Z,10.30
2023-05-02T15:50:59.883Z,11.57
2023-05-02T15:53:26.467Z,8.63
2023-05-02T15:55:53.167Z,11.10
2023-05-02T15:58:20.274Z,11.27
2023-05-02T16:00:47.518Z,9.10
2023-05-02T16:03:15.372Z,9.13
2023-05-02T16:05:42.086Z,7.72
2023-05-02T16:08:08.781Z,8.18
2023-05-02T16:10:36.587Z,11.35
2023-05-02T16:13:03.638Z,8.68
2023-05-02T16:15:30.543Z,10.45
2023-05-02T16:17:57.408Z,9.32
2023-05-02T16:20:24.075Z,7.22
2023-05-02T16:22:51.354Z,6.47
2023-05-02T16:25:18.940Z,7.32
2023-05-02T16:27:45.686Z,6.97
2023-05-02T16:30:13.210Z,7.60
2023-05-02T16:32:40.461Z,6.72
2023-05-02T16:35:10.825Z,6.43
2023-05-02T16:37:37.789Z,7.93
2023-05-02T16:40:05.920Z,9.68
2023-05-02T16:42:34.662Z,8.52
2023-05-02T16:45:01.420Z,8.52
2023-05-02T16:47:28.279Z,10.95
2023-05-02T16:49:56.154Z,11.80
2023-05-02T16:52:23.123Z,17.55
2023-05-02T16:54:50.407Z,9.88
2023-05-02T16:57:19.922Z,12.98
2023-05-02T17:02:14.892Z,8.00
2023-05-02T17:04:41.946Z,8.77
2023-05-02T17:07:09.046Z,5.28
2023-05-02T17:09:38.643Z,7.25
2023-05-02T17:12:06.271Z,4.93
2023-05-02T17:14:33.459Z,4.80
2023-05-02T17:17:01.043Z,6.93
2023-05-02T17:19:27.895Z,3.83
2023-05-02T17:21:54.871Z,8.55
2023-05-02T17:24:21.460Z,5.30
2023-05-02T17:26:48.649Z,5.72
2023-05-02T17:29:15.371Z,9.18
2023-05-02T17:31:42.164Z,8.02
2023-05-02T17:34:08.779Z,5.53
2023-05-02T17:36:36.331Z,4.35
2023-05-02T17:39:03.891Z,2.78
2023-05-02T17:41:30.826Z,5.85
2023-05-02T17:43:57.666Z,7.05
2023-05-02T17:46:24.444Z,5.32
2023-05-02T17:48:52.037Z,7.03
2023-05-02T17:51:18.592Z,4.30
2023-05-02T17:53:45.744Z,7.78
2023-05-02T17:56:14.260Z,7.88
2023-05-02T17:58:40.837Z,5.40
2023-05-02T18:01:12.040Z,6.15
2023-05-02T18:03:38.977Z,8.23
2023-05-02T18:06:06.029Z,6.75
2023-05-02T18:08:32.903Z,3.70
2023-05-02T18:11:00.225Z,6.25
2023-05-02T18:13:27.066Z,5.35
2023-05-02T18:16:04.649Z,5.97
2023-05-02T18:18:32.830Z,6.40
2023-05-02T18:20:59.512Z,7.43
2023-05-02T18:23:26.096Z,4.32
2023-05-02T18:25:52.653Z,4.45
2023-05-02T18:28:19.522Z,3.38
2023-05-02T18:30:46.531Z,3.65
2023-05-02T18:33:13.157Z,5.20
2023-05-02T18:35:46.826Z,4.70
2023-05-02T18:38:13.990Z,4.97
2023-05-02T18:40:40.501Z,4.20
2023-05-02T18:43:07.352Z,6.90
2023-05-02T18:45:35.367Z,5.20
2023-05-02T18:48:06.120Z,5.22
2023-05-02T18:50:36.464Z,4.68
2023-05-02T18:53:03.067Z,7.05
2023-05-02T18:55:32.385Z,8.95
2023-05-02T18:57:59.119Z,8.70
2023-05-02T19:00:26.063Z,8.70
2023-05-02T19:02:55.845Z,9.60
2023-05-02T19:05:22.468Z,28.17
2023-05-02T19:07:49.054Z,23.33
2023-05-02T19:10:15.879Z,6.28
2023-05-02T19:12:43.881Z,6.88
2023-05-02T19:15:11.183Z,4.13
2023-05-02T19:17:37.876Z,5.35
2023-05-02T19:20:04.864Z,5.80
2023-05-02T19:22:34.445Z,9.55
2023-05-02T19:27:28.604Z,9.70
2023-05-02T19:29:55.389Z,6.28
2023-05-02T19:32:22.690Z,7.70
2023-05-02T19:34:50.221Z,8.60
2023-05-02T19:37:16.770Z,8.35
2023-05-02T19:39:43.352Z,5.93
2023-05-02T19:42:09.973Z,4.68
2023-05-02T19:44:36.501Z,6.38
2023-05-02T19:47:03.233Z,9.35
2023-05-02T19:49:29.804Z,5.82
2023-05-02T19:51:56.352Z,5.35
2023-05-02T19:54:22.921Z,4.18
2023-05-02T19:56:49.627Z,5.85
2023-05-02T19:59:16.209Z,10.82
2023-05-02T20:04:09.420Z,3.35
2023-05-02T20:06:36.391Z,8.10
2023-05-02T20:09:03.476Z,6.30
2023-05-02T20:11:30.838Z,4.82
2023-05-02T20:13:57.600Z,5.88
2023-05-02T20:16:24.577Z,4.57
2023-05-02T20:18:52.705Z,7.50
2023-05-02T20:21:19.331Z,6.75
2023-05-02T20:23:45.908Z,4.93
2023-05-02T20:26:13.972Z,6.05
2023-05-02T20:28:40.555Z,8.45
2023-05-02T20:31:07.332Z,8.43
2023-05-02T20:33:44.718Z,3.20
2023-05-02T20:36:14.202Z,4.07
2023-05-02T20:38:42.479Z,7.25
2023-05-02T20:41:12.447Z,7.85
2023-05-02T20:43:44.201Z,7.43
2023-05-02T20:46:12.020Z,10.40
2023-05-02T20:48:39.034Z,5.18
2023-05-02T20:51:05.681Z,7.38
2023-05-02T20:53:32.247Z,6.68
2023-05-02T20:55:58.888Z,4.63
2023-05-02T20:58:25.924Z,5.78
2023-05-02T21:00:52.735Z,4.72
2023-05-02T21:03:19.875Z,8.10
2023-05-02T21:05:52.121Z,2.88
2023-05-02T21:08:18.799Z,4.82
2023-05-02T21:10:49.300Z,11.25
2023-05-02T21:13:16.006Z,8.07
2023-05-02T21:15:42.912Z,8.82
2023-05-02T21:18:09.654Z,3.78
2023-05-02T21:20:38.072Z,5.10
2023-05-02T21:23:04.682Z,4.53
2023-05-02T21:25:31.275Z,8.00
2023-05-02T21:27:57.943Z,4.72
2023-05-02T21:30:24.673Z,10.48
2023-05-02T21:32:51.472Z,6.35
2023-05-02T21:35:18.130Z,7.20
2023-05-02T21:37:44.778Z,5.10
2023-05-02T21:40:12.376Z,6.15
2023-05-02T21:42:39.303Z,7.28
2023-05-02T21:45:06.826Z,5.97
2023-05-02T21:47:33.645Z,6.60
2023-05-02T21:50:00.630Z,5.93
2023-05-02T21:52:28.080Z,4.47
2023-05-02T21:54:54.670Z,6.75
2023-05-02T21:57:21.401Z,4.07
2023-05-02T21:59:48.175Z,6.20
2023-05-02T22:02:14.816Z,10.10
2023-05-02T22:04:41.447Z,6.95
2023-05-02T22:07:08.115Z,4.45
2023-05-02T22:09:34.682Z,4.60
2023-05-02T22:12:01.371Z,6.68
2023-05-02T22:14:37.664Z,6.63
2023-05-02T22:17:11.596Z,4.15
2023-05-02T22:19:38.834Z,6.78
2023-05-02T22:22:05.436Z,2.88
2023-05-02T22:24:32.087Z,5.60
2023-05-02T22:26:58.693Z,5.47
2023-05-02T22:29:25.314Z,7.60
2023-05-02T22:31:52.221Z,8.25
2023-05-02T22:34:19.131Z,4.93
2023-05-02T22:36:46.130Z,6.35
2023-05-02T22:39:14.474Z,5.05
2023-05-02T22:41:42.568Z,6.80
2023-05-02T22:44:09.255Z,3.97
2023-05-02T22:46:38.023Z,3.42
2023-05-02T22:49:06.002Z,5.72
2023-05-02T22:51:33.311Z,6.72
2023-05-02T22:54:00.368Z,9.75
2023-05-02T22:56:27.110Z,7.43
2023-05-02T22:58:53.665Z,7.10
2023-05-02T23:01:20.398Z,18.42
2023-05-02T23:03:47.254Z,9.63
2023-05-02T23:06:14.343Z,6.75
2023-05-02T23:08:40.946Z,5.88
2023-05-02T23:11:07.823Z,8.73
2023-05-02T23:13:35.684Z,22.98
2023-05-02T23:16:02.355Z,10.90
2023-05-02T23:18:28.960Z,11.70
2023-05-02T23:20:55.464Z,9.10
2023-05-02T23:23:22.156Z,6.07
2023-05-02T23:25:48.975Z,6.93
2023-05-02T23:28:15.613Z,4.40
2023-05-02T23:30:42.353Z,4.78
2023-05-02T23:33:09.072Z,5.75
2023-05-02T23:35:35.889Z,5.68
2023-05-02T23:38:05.964Z,7.50
2023-05-02T23:40:32.745Z,5.05
2023-05-02T23:42:59.809Z,5.90
2023-05-02T23:45:26.454Z,4.57
2023-05-02T23:47:53.008Z,4.63
2023-05-02T23:50:19.575Z,3.90
2023-05-02T23:52:46.085Z,6.47
2023-05-02T23:55:12.855Z,5.63
2023-05-02T23:57:39.578Z,5.45
